Capitol Logistics 2028

Operating for MET



KLAX
Los Angeles International Airport
Los Angeles, California
KMCI
Kansas City International Airport
Kansas City, Missouri

Activity Log

Date Flight Route Aircraft Duration
11/11/2021 CPX2028 GARDY4 LAS J146 DICEE KD45U GCK J110 FRACA EMP JHAWK6 B752 3h 00m
04/28/2020 CPX328 ORCKA3 LAS J146 DVC GCK J28 ICT EMP JHAWK6 B752 3h 12m
03/15/2020 CPX328 GARDY3 GARDY YELAH PGS J128 TBC J64 RSK J110 FRACA EMP B763 2h 50m
09/07/2019 CPX328 ORCKA3 LAS J146 DVC GCK J28 ICT EMP JHAWK6 B763 2h 58m

Route Details

Aircraft Information
Group: North America Fleet
Types: B738,B752,B762,B763
Route Data
Demand: V
Distance: 1184nm
Duration: 3h 00m
Recm'd Route: ORCKA3 LAS J146 DVC GCK J28 ICT EMP JHAWK6
Origin Wx: KLAX 242053Z 27011KT 9SM SCT014 SCT025 19/13 A2984 RMK AO2 SLP105 SCT025 V BKN T01940133 58009
Dest. Wx: KMCI 242032Z 07013G23KT 2SM R19R/5500VP6000FT +RA BR BKN009 BKN025 OVC050 12/11 A2986 RMK AO2 PK WND 07028/2011 TWR VIS 3 P0011 T01220111 $
Notes: OPF METRO AIR VIRTUAL

Financial History
Total Freight: 283,410lbs
Average Load: 70,853lbs/flt
Fuel Used: 98,985lbs
Avg. Fuel Used: 24,746lbs/flt
Fuel Expense: $98,924
Avg. Fuel Expense: $24,731
Avg. Fuel Cost: $0.96/lbs
Total Gross Income: $455,055
Pilot Pay: $826
Total Expenses: $53,004
Total Revenue: $300,521
Average Revenue: $113,763.63